sensor_id;sensor_type;location;lat;lon;timestamp;pressure;altitude;pressure_sealevel;temperature;humidity
10202;BME280;5143;42.584;23.164;2023-04-01T00:00:33;91770.69;;;12.12;51.72
10202;BME280;5143;42.584;23.164;2023-04-01T00:03:01;91777.38;;;12.16;51.89
10202;BME280;5143;42.584;23.164;2023-04-01T00:05:28;91775.44;;;12.11;51.92
10202;BME280;5143;42.584;23.164;2023-04-01T00:07:55;91781.34;;;12.15;51.44
10202;BME280;5143;42.584;23.164;2023-04-01T00:10:22;91767.16;;;12.17;51.86
10202;BME280;5143;42.584;23.164;2023-04-01T00:12:49;91773.13;;;12.15;51.62
10202;BME280;5143;42.584;23.164;2023-04-01T00:15:16;91770.22;;;12.08;51.67
10202;BME280;5143;42.584;23.164;2023-04-01T00:17:42;91768.00;;;12.06;51.80
10202;BME280;5143;42.584;23.164;2023-04-01T00:20:12;91775.69;;;12.08;51.87
10202;BME280;5143;42.584;23.164;2023-04-01T00:22:39;91778.38;;;12.13;51.94
10202;BME280;5143;42.584;23.164;2023-04-01T00:25:07;91773.41;;;12.12;51.78
10202;BME280;5143;42.584;23.164;2023-04-01T00:27:34;91776.41;;;12.14;51.83
10202;BME280;5143;42.584;23.164;2023-04-01T00:30:01;91779.84;;;12.14;51.97
10202;BME280;5143;42.584;23.164;2023-04-01T00:32:28;91765.94;;;12.12;51.86
10202;BME280;5143;42.584;23.164;2023-04-01T00:34:55;91755.75;;;12.13;51.67
10202;BME280;5143;42.584;23.164;2023-04-01T00:37:26;91740.19;;;12.02;52.11
10202;BME280;5143;42.584;23.164;2023-04-01T00:39:53;91745.19;;;11.98;52.21
10202;BME280;5143;42.584;23.164;2023-04-01T00:42:20;91744.28;;;11.90;51.89
10202;BME280;5143;42.584;23.164;2023-04-01T00:44:49;91745.59;;;11.83;52.27
10202;BME280;5143;42.584;23.164;2023-04-01T00:47:17;91746.41;;;11.73;52.59
10202;BME280;5143;42.584;23.164;2023-04-01T00:49:46;91746.41;;;11.73;52.91
10202;BME280;5143;42.584;23.164;2023-04-01T00:52:17;91730.53;;;11.66;52.73
10202;BME280;5143;42.584;23.164;2023-04-01T00:54:50;91728.53;;;11.66;52.47
10202;BME280;5143;42.584;23.164;2023-04-01T00:57:22;91734.50;;;11.65;52.60
10202;BME280;5143;42.584;23.164;2023-04-01T00:59:52;91715.63;;;11.67;52.73
10202;BME280;5143;42.584;23.164;2023-04-01T01:02:21;91718.09;;;11.65;52.41
10202;BME280;5143;42.584;23.164;2023-04-01T01:04:48;91710.19;;;11.61;52.41
10202;BME280;5143;42.584;23.164;2023-04-01T01:07:21;91701.25;;;11.61;52.28
10202;BME280;5143;42.584;23.164;2023-04-01T01:10:02;91697.06;;;11.54;51.83
10202;BME280;5143;42.584;23.164;2023-04-01T01:12:35;91699.00;;;11.59;52.04
10202;BME280;5143;42.584;23.164;2023-04-01T01:15:11;91686.66;;;11.53;52.33
10202;BME280;5143;42.584;23.164;2023-04-01T01:17:49;91680.44;;;11.52;52.28
10202;BME280;5143;42.584;23.164;2023-04-01T01:20:49;91671.06;;;11.48;52.28
10202;BME280;5143;42.584;23.164;2023-04-01T01:32:38;91691.59;;;11.54;51.60
10202;BME280;5143;42.584;23.164;2023-04-01T01:35:21;91691.81;;;11.62;51.08
10202;BME280;5143;42.584;23.164;2023-04-01T01:37:52;91676.88;;;11.63;50.89
10202;BME280;5143;42.584;23.164;2023-04-01T01:40:22;91676.81;;;11.74;50.88
10202;BME280;5143;42.584;23.164;2023-04-01T01:42:53;91670.78;;;11.81;50.19
10202;BME280;5143;42.584;23.164;2023-04-01T01:45:23;91680.63;;;11.90;50.33
10202;BME280;5143;42.584;23.164;2023-04-01T01:47:51;91668.91;;;11.95;50.32
10202;BME280;5143;42.584;23.164;2023-04-01T01:50:21;91665.44;;;11.94;50.29
10202;BME280;5143;42.584;23.164;2023-04-01T01:52:50;91662.19;;;11.96;50.16
10202;BME280;5143;42.584;23.164;2023-04-01T01:55:26;91661.69;;;11.97;50.03
10202;BME280;5143;42.584;23.164;2023-04-01T01:57:55;91643.09;;;11.90;50.07
10202;BME280;5143;42.584;23.164;2023-04-01T02:00:24;91653.75;;;11.94;50.21
10202;BME280;5143;42.584;23.164;2023-04-01T02:02:52;91653.53;;;11.92;50.33
10202;BME280;5143;42.584;23.164;2023-04-01T02:05:24;91654.56;;;11.89;50.44
10202;BME280;5143;42.584;23.164;2023-04-01T02:07:55;91661.22;;;11.93;50.43
10202;BME280;5143;42.584;23.164;2023-04-01T02:10:26;91652.78;;;11.91;50.21
10202;BME280;5143;42.584;23.164;2023-04-01T02:12:59;91661.00;;;11.91;50.56
10202;BME280;5143;42.584;23.164;2023-04-01T02:15:28;91649.81;;;11.89;50.47
10202;BME280;5143;42.584;23.164;2023-04-01T02:17:58;91644.91;;;11.82;50.31
10202;BME280;5143;42.584;23.164;2023-04-01T02:20:28;91641.63;;;11.89;50.40
10202;BME280;5143;42.584;23.164;2023-04-01T02:22:57;91642.13;;;11.88;50.32
10202;BME280;5143;42.584;23.164;2023-04-01T02:25:29;91644.31;;;11.95;49.96
10202;BME280;5143;42.584;23.164;2023-04-01T02:27:58;91637.84;;;11.92;49.72
10202;BME280;5143;42.584;23.164;2023-04-01T02:30:27;91642.97;;;12.01;49.79
10202;BME280;5143;42.584;23.164;2023-04-01T02:32:56;91631.88;;;11.94;49.43
10202;BME280;5143;42.584;23.164;2023-04-01T02:35:25;91645.50;;;11.99;49.52
10202;BME280;5143;42.584;23.164;2023-04-01T02:37:54;91656.94;;;11.98;49.89
10202;BME280;5143;42.584;23.164;2023-04-01T02:40:22;91644.81;;;11.93;50.05
10202;BME280;5143;42.584;23.164;2023-04-01T02:42:48;91653.53;;;11.92;50.22
10202;BME280;5143;42.584;23.164;2023-04-01T02:45:16;91653.28;;;11.90;50.41
10202;BME280;5143;42.584;23.164;2023-04-01T02:47:42;91652.56;;;11.89;50.57
10202;BME280;5143;42.584;23.164;2023-04-01T02:50:10;91655.53;;;11.91;50.33
10202;BME280;5143;42.584;23.164;2023-04-01T02:52:37;91664.00;;;11.88;50.69
10202;BME280;5143;42.584;23.164;2023-04-01T02:55:06;91674.66;;;11.91;51.05
10202;BME280;5143;42.584;23.164;2023-04-01T02:57:33;91674.44;;;11.89;51.37
10202;BME280;5143;42.584;23.164;2023-04-01T03:00:00;91680.94;;;11.86;51.21
10202;BME280;5143;42.584;23.164;2023-04-01T03:02:26;91681.19;;;11.82;51.64
10202;BME280;5143;42.584;23.164;2023-04-01T03:04:53;91675.00;;;11.82;51.97
10202;BME280;5143;42.584;23.164;2023-04-01T03:07:20;91682.75;;;11.78;52.10
10202;BME280;5143;42.584;23.164;2023-04-01T03:09:47;91679.28;;;11.77;52.32
10202;BME280;5143;42.584;23.164;2023-04-01T03:12:15;91660.81;;;11.54;52.85
10202;BME280;5143;42.584;23.164;2023-04-01T03:14:42;91684.84;;;11.61;54.26
10202;BME280;5143;42.584;23.164;2023-04-01T03:17:09;91676.19;;;11.57;55.60
10202;BME280;5143;42.584;23.164;2023-04-01T03:19:35;91660.13;;;11.48;57.26
10202;BME280;5143;42.584;23.164;2023-04-01T03:22:03;91664.16;;;11.41;57.34
10202;BME280;5143;42.584;23.164;2023-04-01T03:24:29;91657.50;;;11.37;59.01
10202;BME280;5143;42.584;23.164;2023-04-01T03:26:56;91650.31;;;11.34;59.93
10202;BME280;5143;42.584;23.164;2023-04-01T03:29:25;91641.88;;;11.32;60.71
10202;BME280;5143;42.584;23.164;2023-04-01T03:31:51;91627.78;;;11.22;60.88
10202;BME280;5143;42.584;23.164;2023-04-01T03:34:18;91620.13;;;11.20;60.51
10202;BME280;5143;42.584;23.164;2023-04-01T03:36:45;91602.06;;;11.12;61.52
10202;BME280;5143;42.584;23.164;2023-04-01T03:39:12;91597.56;;;11.14;61.24
10202;BME280;5143;42.584;23.164;2023-04-01T03:41:38;91582.66;;;11.15;61.53
10202;BME280;5143;42.584;23.164;2023-04-01T03:44:06;91579.75;;;11.08;60.99
10202;BME280;5143;42.584;23.164;2023-04-01T03:46:34;91565.13;;;11.05;61.89
10202;BME280;5143;42.584;23.164;2023-04-01T03:49:01;91551.41;;;11.11;59.81
10202;BME280;5143;42.584;23.164;2023-04-01T03:51:28;91547.88;;;11.16;58.62
10202;BME280;5143;42.584;23.164;2023-04-01T03:53:55;91534.22;;;11.16;57.12
10202;BME280;5143;42.584;23.164;2023-04-01T03:56:22;91528.66;;;11.27;56.64
10202;BME280;5143;42.584;23.164;2023-04-01T03:58:49;91532.34;;;11.30;56.43
10202;BME280;5143;42.584;23.164;2023-04-01T04:01:18;91528.66;;;11.27;56.89
10202;BME280;5143;42.584;23.164;2023-04-01T04:03:47;91534.28;;;11.35;55.57
10202;BME280;5143;42.584;23.164;2023-04-01T04:06:15;91529.06;;;11.37;55.13
10202;BME280;5143;42.584;23.164;2023-04-01T04:08:43;91534.81;;;11.33;55.34
10202;BME280;5143;42.584;23.164;2023-04-01T04:11:12;91523.31;;;11.40;54.61
10202;BME280;5143;42.584;23.164;2023-04-01T04:13:38;91515.53;;;11.50;53.79
10202;BME280;5143;42.584;23.164;2023-04-01T04:16:06;91510.50;;;11.54;53.13
10202;BME280;5143;42.584;23.164;2023-04-01T04:18:33;91507.47;;;11.57;52.75
10202;BME280;5143;42.584;23.164;2023-04-01T04:21:02;91501.88;;;11.68;51.75
10202;BME280;5143;42.584;23.164;2023-04-01T04:23:28;91504.38;;;11.72;51.43
10202;BME280;5143;42.584;23.164;2023-04-01T04:25:58;91499.78;;;11.80;49.84
10202;BME280;5143;42.584;23.164;2023-04-01T04:28:26;91504.31;;;11.96;49.65
10202;BME280;5143;42.584;23.164;2023-04-01T04:30:54;91515.47;;;11.98;49.13
10202;BME280;5143;42.584;23.164;2023-04-01T04:33:21;91506.44;;;12.03;48.46
10202;BME280;5143;42.584;23.164;2023-04-01T04:35:48;91503.50;;;12.01;48.88
10202;BME280;5143;42.584;23.164;2023-04-01T04:38:17;91495.75;;;12.05;48.89
10202;BME280;5143;42.584;23.164;2023-04-01T04:40:44;91478.66;;;11.99;48.30
10202;BME280;5143;42.584;23.164;2023-04-01T04:43:11;91486.66;;;12.16;47.96
10202;BME280;5143;42.584;23.164;2023-04-01T04:45:39;91489.88;;;12.14;48.00
10202;BME280;5143;42.584;23.164;2023-04-01T04:48:07;91486.44;;;12.14;47.54
10202;BME280;5143;42.584;23.164;2023-04-01T04:50:34;91479.47;;;12.13;47.83
10202;BME280;5143;42.584;23.164;2023-04-01T04:53:02;91466.69;;;12.02;47.69
10202;BME280;5143;42.584;23.164;2023-04-01T04:55:30;91467.56;;;12.10;47.72
10202;BME280;5143;42.584;23.164;2023-04-01T04:57:56;91456.25;;;12.01;48.06
10202;BME280;5143;42.584;23.164;2023-04-01T05:00:23;91464.78;;;11.97;48.24
10202;BME280;5143;42.584;23.164;2023-04-01T05:02:50;91467.06;;;11.93;48.31
10202;BME280;5143;42.584;23.164;2023-04-01T05:05:17;91461.38;;;11.91;48.26
10202;BME280;5143;42.584;23.164;2023-04-01T05:07:44;91443.63;;;11.79;48.53
10202;BME280;5143;42.584;23.164;2023-04-01T05:10:11;91442.66;;;11.76;48.76
10202;BME280;5143;42.584;23.164;2023-04-01T05:12:39;91437.25;;;11.71;48.72
10202;BME280;5143;42.584;23.164;2023-04-01T05:15:07;91444.75;;;11.65;49.17
10202;BME280;5143;42.584;23.164;2023-04-01T05:17:34;91434.06;;;11.67;49.09
10202;BME280;5143;42.584;23.164;2023-04-01T05:20:01;91439.81;;;11.63;49.30
10202;BME280;5143;42.584;23.164;2023-04-01T05:22:28;91430.88;;;11.63;49.20
10202;BME280;5143;42.584;23.164;2023-04-01T05:24:55;91426.16;;;11.63;49.36
10202;BME280;5143;42.584;23.164;2023-04-01T05:27:24;91434.31;;;11.69;49.17
10202;BME280;5143;42.584;23.164;2023-04-01T05:29:52;91436.03;;;11.72;49.20
10202;BME280;5143;42.584;23.164;2023-04-01T05:32:20;91442.16;;;11.78;49.40
10202;BME280;5143;42.584;23.164;2023-04-01T05:34:50;91446.34;;;11.79;49.32
10202;BME280;5143;42.584;23.164;2023-04-01T05:37:16;91450.09;;;12.32;48.58
10202;BME280;5143;42.584;23.164;2023-04-01T05:39:43;91452.13;;;13.47;46.29
10202;BME280;5143;42.584;23.164;2023-04-01T05:42:11;91442.22;;;14.93;43.53
10202;BME280;5143;42.584;23.164;2023-04-01T05:44:38;91443.88;;;15.73;41.36
10202;BME280;5143;42.584;23.164;2023-04-01T05:47:06;91430.53;;;16.28;39.93
10202;BME280;5143;42.584;23.164;2023-04-01T05:49:33;91430.31;;;16.18;40.04
10202;BME280;5143;42.584;23.164;2023-04-01T05:52:00;91445.03;;;16.94;38.72
10202;BME280;5143;42.584;23.164;2023-04-01T05:54:27;91450.50;;;17.78;37.33
10202;BME280;5143;42.584;23.164;2023-04-01T05:56:54;91429.13;;;17.86;36.83
10202;BME280;5143;42.584;23.164;2023-04-01T05:59:21;91438.84;;;18.49;36.16
10202;BME280;5143;42.584;23.164;2023-04-01T06:01:48;91445.31;;;18.76;35.31
10202;BME280;5143;42.584;23.164;2023-04-01T06:04:17;91439.25;;;18.78;34.70
10202;BME280;5143;42.584;23.164;2023-04-01T06:06:45;91462.53;;;18.67;35.21
10202;BME280;5143;42.584;23.164;2023-04-01T06:09:15;91436.50;;;17.83;36.79
10202;BME280;5143;42.584;23.164;2023-04-01T06:11:54;91445.00;;;17.47;37.83
10202;BME280;5143;42.584;23.164;2023-04-01T06:14:32;91443.63;;;16.50;39.16
10202;BME280;5143;42.584;23.164;2023-04-01T06:17:15;91451.47;;;16.23;39.63
10202;BME280;5143;42.584;23.164;2023-04-01T06:19:51;91455.00;;;15.39;40.97
10202;BME280;5143;42.584;23.164;2023-04-01T06:22:29;91459.22;;;15.12;42.07
10202;BME280;5143;42.584;23.164;2023-04-01T06:25:12;91454.78;;;15.09;43.07
10202;BME280;5143;42.584;23.164;2023-04-01T06:30:38;91434.84;;;14.88;43.02
10202;BME280;5143;42.584;23.164;2023-04-01T06:33:31;91426.59;;;14.67;43.40
10202;BME280;5143;42.584;23.164;2023-04-01T06:36:29;91428.16;;;14.55;43.59
10202;BME280;5143;42.584;23.164;2023-04-01T06:39:09;91413.56;;;14.26;44.36
10202;BME280;5143;42.584;23.164;2023-04-01T06:42:06;91411.06;;;14.15;43.89
10202;BME280;5143;42.584;23.164;2023-04-01T06:44:43;91410.91;;;14.00;44.63
10202;BME280;5143;42.584;23.164;2023-04-01T06:47:26;91403.75;;;13.97;44.23
10202;BME280;5143;42.584;23.164;2023-04-01T06:50:07;91395.94;;;13.88;44.41
10202;BME280;5143;42.584;23.164;2023-04-01T06:52:47;91394.69;;;13.89;44.27
10202;BME280;5143;42.584;23.164;2023-04-01T06:55:26;91389.84;;;13.82;44.62
10202;BME280;5143;42.584;23.164;2023-04-01T06:57:56;91399.25;;;13.86;44.31
10202;BME280;5143;42.584;23.164;2023-04-01T07:00:29;91399.28;;;13.73;45.32
10202;BME280;5143;42.584;23.164;2023-04-01T07:03:05;91393.16;;;13.67;45.11
10202;BME280;5143;42.584;23.164;2023-04-01T07:05:33;91389.25;;;13.63;45.92
10202;BME280;5143;42.584;23.164;2023-04-01T07:08:05;91372.38;;;13.72;46.15
10202;BME280;5143;42.584;23.164;2023-04-01T07:10:41;91373.22;;;13.67;45.67
10202;BME280;5143;42.584;23.164;2023-04-01T07:13:13;91360.06;;;13.65;46.35
10202;BME280;5143;42.584;23.164;2023-04-01T07:15:46;91373.63;;;13.71;46.27
10202;BME280;5143;42.584;23.164;2023-04-01T07:18:19;91361.94;;;13.70;46.07
10202;BME280;5143;42.584;23.164;2023-04-01T07:20:49;91375.28;;;13.87;45.73
10202;BME280;5143;42.584;23.164;2023-04-01T07:23:23;91354.19;;;13.82;45.57
10202;BME280;5143;42.584;23.164;2023-04-01T07:25:53;91372.81;;;13.96;45.48
10202;BME280;5143;42.584;23.164;2023-04-01T07:28:21;91375.38;;;13.94;45.56
10202;BME280;5143;42.584;23.164;2023-04-01T07:30:58;91382.19;;;14.01;45.36
10202;BME280;5143;42.584;23.164;2023-04-01T07:33:33;91369.06;;;13.86;45.64
10202;BME280;5143;42.584;23.164;2023-04-01T07:36:07;91379.06;;;13.97;46.03
10202;BME280;5143;42.584;23.164;2023-04-01T07:38:47;91381.34;;;14.06;45.94
10202;BME280;5143;42.584;23.164;2023-04-01T07:41:24;91381.91;;;13.91;46.64
10202;BME280;5143;42.584;23.164;2023-04-01T07:44:05;91375.56;;;13.96;46.61
10202;BME280;5143;42.584;23.164;2023-04-01T07:46:51;91366.41;;;13.94;46.64
10202;BME280;5143;42.584;23.164;2023-04-01T07:49:28;91360.09;;;13.86;47.04
10202;BME280;5143;42.584;23.164;2023-04-01T07:52:01;91361.59;;;13.74;47.31
10202;BME280;5143;42.584;23.164;2023-04-01T07:54:37;91351.91;;;13.73;47.47
10202;BME280;5143;42.584;23.164;2023-04-01T07:57:11;91353.91;;;13.72;47.53
10202;BME280;5143;42.584;23.164;2023-04-01T07:59:45;91350.66;;;13.60;47.89
10202;BME280;5143;42.584;23.164;2023-04-01T08:02:25;91331.06;;;13.56;47.95
10202;BME280;5143;42.584;23.164;2023-04-01T08:05:02;91337.56;;;13.67;48.01
10202;BME280;5143;42.584;23.164;2023-04-01T08:07:38;91343.88;;;13.75;47.88
10202;BME280;5143;42.584;23.164;2023-04-01T08:10:14;91337.41;;;13.85;47.60
10202;BME280;5143;42.584;23.164;2023-04-01T08:12:50;91327.78;;;13.92;46.91
10202;BME280;5143;42.584;23.164;2023-04-01T08:15:23;91321.38;;;14.10;46.76
10202;BME280;5143;42.584;23.164;2023-04-01T08:18:08;91323.59;;;14.11;45.86
10202;BME280;5143;42.584;23.164;2023-04-01T08:20:41;91317.44;;;14.18;45.89
10202;BME280;5143;42.584;23.164;2023-04-01T08:23:14;91327.34;;;14.42;44.90
10202;BME280;5143;42.584;23.164;2023-04-01T08:25:48;91313.06;;;14.64;44.66
10202;BME280;5143;42.584;23.164;2023-04-01T08:28:22;91295.16;;;14.99;43.86
10202;BME280;5143;42.584;23.164;2023-04-01T08:30:53;91241.81;;;14.95;43.64
10202;BME280;5143;42.584;23.164;2023-04-01T08:33:25;91274.41;;;15.70;42.13
10202;BME280;5143;42.584;23.164;2023-04-01T08:35:56;91281.84;;;16.28;41.46
10202;BME280;5143;42.584;23.164;2023-04-01T08:38:29;91285.47;;;16.08;41.43
10202;BME280;5143;42.584;23.164;2023-04-01T08:41:10;91288.91;;;15.78;41.64
10202;BME280;5143;42.584;23.164;2023-04-01T08:43:54;91279.41;;;16.02;41.59
10202;BME280;5143;42.584;23.164;2023-04-01T08:46:53;91281.09;;;16.20;41.37
10202;BME280;5143;42.584;23.164;2023-04-01T08:49:37;91282.94;;;16.25;41.22
10202;BME280;5143;42.584;23.164;2023-04-01T08:52:21;91286.56;;;16.05;41.69
10202;BME280;5143;42.584;23.164;2023-04-01T08:55:20;91275.56;;;15.89;40.70
10202;BME280;5143;42.584;23.164;2023-04-01T08:58:01;91266.03;;;16.06;41.81
10202;BME280;5143;42.584;23.164;2023-04-01T09:00:32;91262.16;;;15.93;41.33
10202;BME280;5143;42.584;23.164;2023-04-01T09:03:26;91268.63;;;16.19;40.68
10202;BME280;5143;42.584;23.164;2023-04-01T09:09:19;91268.59;;;16.94;39.92
10202;BME280;5143;42.584;23.164;2023-04-01T09:15:15;91268.44;;;16.62;39.97
10202;BME280;5143;42.584;23.164;2023-04-01T09:18:23;91277.78;;;16.51;40.46
10202;BME280;5143;42.584;23.164;2023-04-01T09:21:14;91265.88;;;16.34;41.93
10202;BME280;5143;42.584;23.164;2023-04-01T09:24:26;91266.34;;;15.79;42.82
10202;BME280;5143;42.584;23.164;2023-04-01T09:27:04;91255.19;;;15.34;43.91
10202;BME280;5143;42.584;23.164;2023-04-01T09:29:51;91252.28;;;15.40;44.09
10202;BME280;5143;42.584;23.164;2023-04-01T09:32:48;91242.72;;;15.33;44.53
10202;BME280;5143;42.584;23.164;2023-04-01T09:35:22;91237.31;;;15.48;44.70
10202;BME280;5143;42.584;23.164;2023-04-01T09:37:57;91250.34;;;15.55;43.94
10202;BME280;5143;42.584;23.164;2023-04-01T09:40:37;91243.28;;;15.90;44.01
10202;BME280;5143;42.584;23.164;2023-04-01T09:43:24;91233.53;;;15.74;44.95
10202;BME280;5143;42.584;23.164;2023-04-01T09:46:11;91239.91;;;15.69;44.81
10202;BME280;5143;42.584;23.164;2023-04-01T09:51:40;91226.66;;;15.52;46.06
10202;BME280;5143;42.584;23.164;2023-04-01T09:54:22;91213.47;;;15.58;45.97
10202;BME280;5143;42.584;23.164;2023-04-01T09:57:15;91211.28;;;15.57;46.08
10202;BME280;5143;42.584;23.164;2023-04-01T10:00:18;91199.22;;;15.75;46.06
10202;BME280;5143;42.584;23.164;2023-04-01T10:06:43;91203.63;;;15.85;45.17
10202;BME280;5143;42.584;23.164;2023-04-01T10:12:54;91199.59;;;15.79;44.95
10202;BME280;5143;42.584;23.164;2023-04-01T10:15:46;91184.00;;;15.81;44.98
10202;BME280;5143;42.584;23.164;2023-04-01T10:18:40;91181.63;;;16.01;45.31
10202;BME280;5143;42.584;23.164;2023-04-01T10:21:39;91181.97;;;16.35;44.19
10202;BME280;5143;42.584;23.164;2023-04-01T10:24:36;91168.72;;;16.48;43.83
10202;BME280;5143;42.584;23.164;2023-04-01T10:27:19;91165.09;;;16.23;43.64
10202;BME280;5143;42.584;23.164;2023-04-01T10:30:34;91158.25;;;16.62;43.72
10202;BME280;5143;42.584;23.164;2023-04-01T10:42:38;91148.97;;;16.12;42.23
10202;BME280;5143;42.584;23.164;2023-04-01T10:45:35;91148.22;;;16.04;43.28
10202;BME280;5143;42.584;23.164;2023-04-01T10:48:18;91144.38;;;16.00;43.05
10202;BME280;5143;42.584;23.164;2023-04-01T10:54:18;91139.94;;;16.27;43.45
10202;BME280;5143;42.584;23.164;2023-04-01T10:56:55;91126.72;;;16.33;43.16
10202;BME280;5143;42.584;23.164;2023-04-01T10:59:42;91121.88;;;16.71;42.70
10202;BME280;5143;42.584;23.164;2023-04-01T11:15:13;91119.97;;;15.58;44.99
10202;BME280;5143;42.584;23.164;2023-04-01T11:24:21;91162.09;;;15.38;48.01
10202;BME280;5143;42.584;23.164;2023-04-01T11:27:09;91175.63;;;15.21;47.69
10202;BME280;5143;42.584;23.164;2023-04-01T11:29:48;91187.63;;;15.03;47.61
10202;BME280;5143;42.584;23.164;2023-04-01T11:32:28;91203.66;;;14.84;52.20
10202;BME280;5143;42.584;23.164;2023-04-01T11:35:22;91263.91;;;14.53;58.16
10202;BME280;5143;42.584;23.164;2023-04-01T11:37:58;91313.88;;;13.56;76.58
10202;BME280;5143;42.584;23.164;2023-04-01T11:40:37;91292.69;;;12.57;96.23
10202;BME280;5143;42.584;23.164;2023-04-01T11:43:12;91305.66;;;12.12;100.00
10202;BME280;5143;42.584;23.164;2023-04-01T11:45:48;91335.81;;;11.37;100.00
10202;BME280;5143;42.584;23.164;2023-04-01T11:48:45;91343.94;;;11.05;100.00
10202;BME280;5143;42.584;23.164;2023-04-01T11:57:23;91355.97;;;10.73;100.00
10202;BME280;5143;42.584;23.164;2023-04-01T12:00:25;91356.81;;;10.86;100.00
10202;BME280;5143;42.584;23.164;2023-04-01T12:03:16;91350.09;;;10.87;100.00
10202;BME280;5143;42.584;23.164;2023-04-01T12:05:54;91351.38;;;11.05;100.00
10202;BME280;5143;42.584;23.164;2023-04-01T12:08:31;91348.22;;;11.19;100.00
10202;BME280;5143;42.584;23.164;2023-04-01T12:11:10;91339.44;;;11.26;100.00
10202;BME280;5143;42.584;23.164;2023-04-01T12:13:47;91332.81;;;11.22;100.00
10202;BME280;5143;42.584;23.164;2023-04-01T12:16:41;91324.69;;;11.16;100.00
10202;BME280;5143;42.584;23.164;2023-04-01T12:19:17;91314.50;;;10.98;100.00
10202;BME280;5143;42.584;23.164;2023-04-01T12:22:00;91312.88;;;11.08;100.00
10202;BME280;5143;42.584;23.164;2023-04-01T12:24:56;91315.38;;;11.06;100.00
10202;BME280;5143;42.584;23.164;2023-04-01T12:27:33;91327.41;;;11.16;100.00
10202;BME280;5143;42.584;23.164;2023-04-01T12:30:19;91321.88;;;11.22;100.00
10202;BME280;5143;42.584;23.164;2023-04-01T12:32:59;91338.69;;;11.07;100.00
10202;BME280;5143;42.584;23.164;2023-04-01T12:35:35;91357.72;;;11.13;100.00
10202;BME280;5143;42.584;23.164;2023-04-01T12:38:20;91344.53;;;11.17;100.00
10202;BME280;5143;42.584;23.164;2023-04-01T12:41:06;91349.72;;;11.20;100.00
10202;BME280;5143;42.584;23.164;2023-04-01T12:46:32;91328.38;;;11.19;100.00
10202;BME280;5143;42.584;23.164;2023-04-01T12:49:25;91325.03;;;11.07;100.00
10202;BME280;5143;42.584;23.164;2023-04-01T12:52:07;91339.56;;;11.15;100.00
10202;BME280;5143;42.584;23.164;2023-04-01T12:58:15;91340.16;;;10.90;100.00
10202;BME280;5143;42.584;23.164;2023-04-01T13:01:00;91319.50;;;10.94;100.00
10202;BME280;5143;42.584;23.164;2023-04-01T13:03:43;91287.00;;;10.72;100.00
10202;BME280;5143;42.584;23.164;2023-04-01T13:06:28;91263.97;;;10.49;100.00
10202;BME280;5143;42.584;23.164;2023-04-01T13:09:04;91244.19;;;10.43;100.00
10202;BME280;5143;42.584;23.164;2023-04-01T13:11:51;91261.28;;;10.86;100.00
10202;BME280;5143;42.584;23.164;2023-04-01T13:17:26;91250.25;;;11.48;100.00
10202;BME280;5143;42.584;23.164;2023-04-01T13:19:58;91245.78;;;11.63;100.00
10202;BME280;5143;42.584;23.164;2023-04-01T13:22:35;91250.53;;;11.95;100.00
10202;BME280;5143;42.584;23.164;2023-04-01T13:25:13;91254.56;;;12.33;100.00
10202;BME280;5143;42.584;23.164;2023-04-01T13:27:48;91254.47;;;12.38;100.00
10202;BME280;5143;42.584;23.164;2023-04-01T13:30:25;91250.16;;;12.43;100.00
10202;BME280;5143;42.584;23.164;2023-04-01T13:32:59;91242.56;;;12.49;100.00
10202;BME280;5143;42.584;23.164;2023-04-01T13:35:39;91253.41;;;12.55;100.00
10202;BME280;5143;42.584;23.164;2023-04-01T13:41:43;91230.44;;;12.84;100.00
10202;BME280;5143;42.584;23.164;2023-04-01T13:44:18;91256.50;;;13.24;100.00
10202;BME280;5143;42.584;23.164;2023-04-01T13:50:12;91246.34;;;13.45;100.00
10202;BME280;5143;42.584;23.164;2023-04-01T13:53:08;91234.34;;;13.35;100.00
10202;BME280;5143;42.584;23.164;2023-04-01T13:55:55;91225.38;;;12.88;100.00
10202;BME280;5143;42.584;23.164;2023-04-01T13:58:39;91222.97;;;12.71;100.00
10202;BME280;5143;42.584;23.164;2023-04-01T14:01:15;91210.69;;;12.52;100.00
10202;BME280;5143;42.584;23.164;2023-04-01T14:04:19;91203.19;;;12.65;100.00
10202;BME280;5143;42.584;23.164;2023-04-01T14:07:00;91199.28;;;12.74;100.00
10202;BME280;5143;42.584;23.164;2023-04-01T14:09:44;91208.53;;;12.84;100.00
10202;BME280;5143;42.584;23.164;2023-04-01T14:12:20;91205.28;;;12.85;100.00
10202;BME280;5143;42.584;23.164;2023-04-01T14:15:02;91205.88;;;13.05;100.00
10202;BME280;5143;42.584;23.164;2023-04-01T14:17:47;91207.53;;;13.08;100.00
10202;BME280;5143;42.584;23.164;2023-04-01T14:20:33;91194.28;;;13.12;100.00
10202;BME280;5143;42.584;23.164;2023-04-01T14:23:33;91192.78;;;13.11;100.00
10202;BME280;5143;42.584;23.164;2023-04-01T14:26:13;91193.13;;;13.07;100.00
10202;BME280;5143;42.584;23.164;2023-04-01T14:28:49;91178.91;;;13.09;100.00
10202;BME280;5143;42.584;23.164;2023-04-01T14:31:39;91182.28;;;12.88;100.00
10202;BME280;5143;42.584;23.164;2023-04-01T14:34:21;91181.97;;;12.92;100.00
10202;BME280;5143;42.584;23.164;2023-04-01T14:37:03;91167.94;;;12.95;100.00
10202;BME280;5143;42.584;23.164;2023-04-01T14:40:03;91168.91;;;12.98;100.00
10202;BME280;5143;42.584;23.164;2023-04-01T14:45:55;91173.81;;;12.99;100.00
10202;BME280;5143;42.584;23.164;2023-04-01T14:48:32;91168.22;;;13.05;100.00
10202;BME280;5143;42.584;23.164;2023-04-01T14:51:09;91162.22;;;13.20;100.00
10202;BME280;5143;42.584;23.164;2023-04-01T14:53:44;91138.53;;;13.09;100.00
10202;BME280;5143;42.584;23.164;2023-04-01T14:56:35;91140.84;;;13.05;100.00
10202;BME280;5143;42.584;23.164;2023-04-01T14:59:07;91151.78;;;13.18;100.00
10202;BME280;5143;42.584;23.164;2023-04-01T15:01:40;91158.09;;;13.13;100.00
10202;BME280;5143;42.584;23.164;2023-04-01T15:04:26;91161.63;;;13.00;100.00
10202;BME280;5143;42.584;23.164;2023-04-01T15:07:10;91171.63;;;12.98;100.00